sensor_id;sensor_type;location;lat;lon;timestamp;pressure;altitude;pressure_sealevel;temperature;humidity
9672;BME280;4874;43.568;27.824;2023-05-21T00:00:24;98756.34;;;15.91;100.00
9672;BME280;4874;43.568;27.824;2023-05-21T00:02:50;98754.13;;;15.95;100.00
9672;BME280;4874;43.568;27.824;2023-05-21T00:05:17;98743.72;;;15.85;100.00
9672;BME280;4874;43.568;27.824;2023-05-21T00:07:44;98750.81;;;16.07;100.00
9672;BME280;4874;43.568;27.824;2023-05-21T00:10:12;98758.56;;;15.88;100.00
9672;BME280;4874;43.568;27.824;2023-05-21T00:12:39;98752.44;;;15.65;100.00
9672;BME280;4874;43.568;27.824;2023-05-21T00:15:07;98750.03;;;15.70;100.00
9672;BME280;4874;43.568;27.824;2023-05-21T00:17:34;98753.72;;;15.69;100.00
9672;BME280;4874;43.568;27.824;2023-05-21T00:20:05;98745.78;;;15.75;100.00
9672;BME280;4874;43.568;27.824;2023-05-21T00:22:32;98737.75;;;15.61;100.00
9672;BME280;4874;43.568;27.824;2023-05-21T00:24:59;98747.84;;;15.73;100.00
9672;BME280;4874;43.568;27.824;2023-05-21T00:27:26;98749.06;;;15.48;100.00
9672;BME280;4874;43.568;27.824;2023-05-21T00:29:53;98750.28;;;15.38;100.00
9672;BME280;4874;43.568;27.824;2023-05-21T00:32:20;98752.09;;;15.45;100.00
9672;BME280;4874;43.568;27.824;2023-05-21T00:34:47;98744.44;;;15.42;100.00
9672;BME280;4874;43.568;27.824;2023-05-21T00:37:14;98747.25;;;15.63;100.00
9672;BME280;4874;43.568;27.824;2023-05-21T00:39:41;98747.59;;;15.38;100.00
9672;BME280;4874;43.568;27.824;2023-05-21T00:42:07;98745.75;;;15.23;100.00
9672;BME280;4874;43.568;27.824;2023-05-21T00:44:34;98743.16;;;15.30;100.00
9672;BME280;4874;43.568;27.824;2023-05-21T00:47:02;98734.78;;;15.33;100.00
9672;BME280;4874;43.568;27.824;2023-05-21T00:49:29;98732.00;;;15.26;100.00
9672;BME280;4874;43.568;27.824;2023-05-21T00:51:56;98739.47;;;15.31;100.00
9672;BME280;4874;43.568;27.824;2023-05-21T00:54:23;98733.84;;;15.49;100.00
9672;BME280;4874;43.568;27.824;2023-05-21T00:56:50;98735.03;;;15.23;100.00
9672;BME280;4874;43.568;27.824;2023-05-21T00:59:18;98737.47;;;15.33;100.00
9672;BME280;4874;43.568;27.824;2023-05-21T01:01:45;98731.53;;;15.46;100.00
9672;BME280;4874;43.568;27.824;2023-05-21T01:04:12;98729.13;;;15.28;100.00
9672;BME280;4874;43.568;27.824;2023-05-21T01:06:38;98736.69;;;15.47;100.00
9672;BME280;4874;43.568;27.824;2023-05-21T01:09:05;98722.94;;;15.27;100.00
9672;BME280;4874;43.568;27.824;2023-05-21T01:11:51;98687.50;;;15.11;100.00
9672;BME280;4874;43.568;27.824;2023-05-21T01:14:19;98720.09;;;15.29;100.00
9672;BME280;4874;43.568;27.824;2023-05-21T01:16:48;98719.88;;;15.39;100.00
9672;BME280;4874;43.568;27.824;2023-05-21T01:19:21;98714.94;;;15.27;100.00
9672;BME280;4874;43.568;27.824;2023-05-21T01:21:51;98713.22;;;15.12;100.00
9672;BME280;4874;43.568;27.824;2023-05-21T01:24:19;98718.16;;;15.23;100.00
9672;BME280;4874;43.568;27.824;2023-05-21T01:26:46;98710.22;;;15.15;100.00
9672;BME280;4874;43.568;27.824;2023-05-21T01:29:13;98705.34;;;14.96;100.00
9672;BME280;4874;43.568;27.824;2023-05-21T01:31:46;98699.44;;;15.23;100.00
9672;BME280;4874;43.568;27.824;2023-05-21T01:34:15;98668.63;;;14.90;100.00
9672;BME280;4874;43.568;27.824;2023-05-21T01:36:54;98694.22;;;15.07;100.00
9672;BME280;4874;43.568;27.824;2023-05-21T01:39:26;98696.59;;;15.02;100.00
9672;BME280;4874;43.568;27.824;2023-05-21T01:41:55;98686.56;;;14.81;100.00
9672;BME280;4874;43.568;27.824;2023-05-21T01:44:23;98664.34;;;14.81;100.00
9672;BME280;4874;43.568;27.824;2023-05-21T01:46:53;98693.41;;;14.84;100.00
9672;BME280;4874;43.568;27.824;2023-05-21T01:49:20;98682.41;;;14.79;100.00
9672;BME280;4874;43.568;27.824;2023-05-21T01:51:48;98678.34;;;14.83;100.00
9672;BME280;4874;43.568;27.824;2023-05-21T01:54:15;98683.75;;;14.75;100.00
9672;BME280;4874;43.568;27.824;2023-05-21T01:56:42;98607.78;;;14.24;100.00
9672;BME280;4874;43.568;27.824;2023-05-21T01:59:09;98692.66;;;14.90;100.00
9672;BME280;4874;43.568;27.824;2023-05-21T02:01:35;98688.81;;;14.70;100.00
9672;BME280;4874;43.568;27.824;2023-05-21T02:04:02;98694.22;;;14.62;100.00
9672;BME280;4874;43.568;27.824;2023-05-21T02:06:29;98688.81;;;14.70;100.00
9672;BME280;4874;43.568;27.824;2023-05-21T02:08:57;98687.53;;;14.58;100.00
9672;BME280;4874;43.568;27.824;2023-05-21T02:11:24;98689.97;;;14.45;100.00
9672;BME280;4874;43.568;27.824;2023-05-21T02:13:51;98690.53;;;14.63;100.00
9672;BME280;4874;43.568;27.824;2023-05-21T02:16:19;98692.53;;;14.61;100.00
9672;BME280;4874;43.568;27.824;2023-05-21T02:18:48;98672.75;;;14.47;100.00
9672;BME280;4874;43.568;27.824;2023-05-21T02:21:19;98687.72;;;14.56;100.00
9672;BME280;4874;43.568;27.824;2023-05-21T02:23:46;98671.97;;;14.39;100.00
9672;BME280;4874;43.568;27.824;2023-05-21T02:26:12;98686.94;;;14.48;100.00
9672;BME280;4874;43.568;27.824;2023-05-21T02:28:39;98678.34;;;14.30;100.00
9672;BME280;4874;43.568;27.824;2023-05-21T02:31:06;98668.91;;;14.11;100.00
9672;BME280;4874;43.568;27.824;2023-05-21T02:33:32;98682.38;;;14.26;100.00
9672;BME280;4874;43.568;27.824;2023-05-21T02:35:59;98689.66;;;14.40;100.00
9672;BME280;4874;43.568;27.824;2023-05-21T02:38:26;98691.38;;;14.33;100.00
9672;BME280;4874;43.568;27.824;2023-05-21T02:40:53;98687.72;;;14.26;100.00
9672;BME280;4874;43.568;27.824;2023-05-21T02:43:19;98688.69;;;14.33;100.00
9672;BME280;4874;43.568;27.824;2023-05-21T02:45:46;98691.53;;;14.23;100.00
9672;BME280;4874;43.568;27.824;2023-05-21T02:48:13;98688.69;;;14.33;100.00
9672;BME280;4874;43.568;27.824;2023-05-21T02:50:40;98696.78;;;14.47;100.00
9672;BME280;4874;43.568;27.824;2023-05-21T02:53:07;98648.66;;;13.86;100.00
9672;BME280;4874;43.568;27.824;2023-05-21T02:55:33;98698.00;;;14.37;100.00
9672;BME280;4874;43.568;27.824;2023-05-21T02:58:00;98689.00;;;14.38;100.00
9672;BME280;4874;43.568;27.824;2023-05-21T03:00:27;98696.19;;;14.37;100.00
9672;BME280;4874;43.568;27.824;2023-05-21T03:02:54;98688.16;;;14.37;100.00
9672;BME280;4874;43.568;27.824;2023-05-21T03:05:21;98688.78;;;14.47;100.00
9672;BME280;4874;43.568;27.824;2023-05-21T03:07:47;98690.34;;;14.34;100.00
9672;BME280;4874;43.568;27.824;2023-05-21T03:10:14;98693.06;;;14.26;100.00
9672;BME280;4874;43.568;27.824;2023-05-21T03:12:41;98684.81;;;14.35;100.00
9672;BME280;4874;43.568;27.824;2023-05-21T03:15:08;98697.38;;;14.65;100.00
9672;BME280;4874;43.568;27.824;2023-05-21T03:17:35;98650.88;;;14.52;100.00
9672;BME280;4874;43.568;27.824;2023-05-21T03:20:02;98683.66;;;14.68;100.00
9672;BME280;4874;43.568;27.824;2023-05-21T03:22:30;98685.94;;;14.71;100.00
9672;BME280;4874;43.568;27.824;2023-05-21T03:24:57;98692.97;;;14.72;100.00
9672;BME280;4874;43.568;27.824;2023-05-21T03:27:24;98690.16;;;14.66;100.00
9672;BME280;4874;43.568;27.824;2023-05-21T03:29:51;98688.94;;;14.76;100.00
9672;BME280;4874;43.568;27.824;2023-05-21T03:32:20;98687.31;;;14.67;100.00
9672;BME280;4874;43.568;27.824;2023-05-21T03:34:47;98678.06;;;14.78;100.00
9672;BME280;4874;43.568;27.824;2023-05-21T03:37:14;98687.16;;;14.69;100.00
9672;BME280;4874;43.568;27.824;2023-05-21T03:39:40;98681.56;;;14.78;100.00
9672;BME280;4874;43.568;27.824;2023-05-21T03:42:07;98681.16;;;14.89;100.00
9672;BME280;4874;43.568;27.824;2023-05-21T03:44:34;98676.91;;;14.95;100.00
9672;BME280;4874;43.568;27.824;2023-05-21T03:47:01;98664.28;;;14.89;100.00
9672;BME280;4874;43.568;27.824;2023-05-21T03:49:27;98674.72;;;14.98;100.00
9672;BME280;4874;43.568;27.824;2023-05-21T03:51:54;98675.94;;;14.96;100.00
9672;BME280;4874;43.568;27.824;2023-05-21T03:54:21;98670.47;;;14.89;100.00
9672;BME280;4874;43.568;27.824;2023-05-21T03:56:48;98657.03;;;14.97;100.00
9672;BME280;4874;43.568;27.824;2023-05-21T03:59:14;98673.44;;;14.94;100.00
9672;BME280;4874;43.568;27.824;2023-05-21T04:01:41;98668.22;;;15.01;100.00
9672;BME280;4874;43.568;27.824;2023-05-21T04:04:09;98658.94;;;14.89;100.00
9672;BME280;4874;43.568;27.824;2023-05-21T04:06:35;98656.78;;;15.07;100.00
9672;BME280;4874;43.568;27.824;2023-05-21T04:09:03;98645.28;;;15.06;100.00
9672;BME280;4874;43.568;27.824;2023-05-21T04:11:30;98647.47;;;15.03;100.00
9672;BME280;4874;43.568;27.824;2023-05-21T04:13:57;98651.72;;;15.12;100.00
9672;BME280;4874;43.568;27.824;2023-05-21T04:16:23;98641.09;;;15.04;100.00
9672;BME280;4874;43.568;27.824;2023-05-21T04:18:50;98660.56;;;15.12;100.00
9672;BME280;4874;43.568;27.824;2023-05-21T04:21:17;98657.59;;;15.30;100.00
9672;BME280;4874;43.568;27.824;2023-05-21T04:23:44;98663.81;;;15.45;100.00
9672;BME280;4874;43.568;27.824;2023-05-21T04:26:11;98644.13;;;15.38;100.00
9672;BME280;4874;43.568;27.824;2023-05-21T04:28:38;98672.78;;;15.52;100.00
9672;BME280;4874;43.568;27.824;2023-05-21T04:31:07;98677.03;;;15.61;100.00
9672;BME280;4874;43.568;27.824;2023-05-21T04:33:34;98680.91;;;15.59;100.00
9672;BME280;4874;43.568;27.824;2023-05-21T04:36:01;98679.63;;;15.98;100.00
9672;BME280;4874;43.568;27.824;2023-05-21T04:38:29;98686.91;;;16.19;100.00
9672;BME280;4874;43.568;27.824;2023-05-21T04:40:56;98686.16;;;16.25;100.00
9672;BME280;4874;43.568;27.824;2023-05-21T04:43:24;98680.78;;;16.39;100.00
9672;BME280;4874;43.568;27.824;2023-05-21T04:45:53;98679.56;;;16.57;100.00
9672;BME280;4874;43.568;27.824;2023-05-21T04:48:21;98675.84;;;16.93;100.00
9672;BME280;4874;43.568;27.824;2023-05-21T04:50:52;98667.22;;;16.98;100.00
9672;BME280;4874;43.568;27.824;2023-05-21T04:53:19;98677.00;;;17.05;100.00
9672;BME280;4874;43.568;27.824;2023-05-21T04:55:46;98681.44;;;17.19;100.00
9672;BME280;4874;43.568;27.824;2023-05-21T04:58:13;98686.28;;;17.30;100.00
9672;BME280;4874;43.568;27.824;2023-05-21T05:00:43;98672.16;;;17.43;100.00
9672;BME280;4874;43.568;27.824;2023-05-21T05:03:12;98688.97;;;17.51;100.00
9672;BME280;4874;43.568;27.824;2023-05-21T05:05:39;98684.06;;;17.55;100.00
9672;BME280;4874;43.568;27.824;2023-05-21T05:08:06;98678.41;;;17.78;100.00
9672;BME280;4874;43.568;27.824;2023-05-21T05:10:33;98672.34;;;17.69;100.00
9672;BME280;4874;43.568;27.824;2023-05-21T05:13:00;98677.84;;;17.82;100.00
9672;BME280;4874;43.568;27.824;2023-05-21T05:15:27;98677.78;;;18.10;100.00
9672;BME280;4874;43.568;27.824;2023-05-21T05:17:54;98676.53;;;18.12;100.00
9672;BME280;4874;43.568;27.824;2023-05-21T05:20:22;98667.72;;;18.18;100.00
9672;BME280;4874;43.568;27.824;2023-05-21T05:22:48;98678.78;;;18.43;100.00
9672;BME280;4874;43.568;27.824;2023-05-21T05:25:15;98689.41;;;18.57;100.00
9672;BME280;4874;43.568;27.824;2023-05-21T05:27:42;98678.94;;;18.89;100.00
9672;BME280;4874;43.568;27.824;2023-05-21T05:30:09;98681.66;;;19.15;100.00
9672;BME280;4874;43.568;27.824;2023-05-21T05:32:36;98682.94;;;19.32;97.57
9672;BME280;4874;43.568;27.824;2023-05-21T05:35:03;98672.59;;;19.55;95.61
9672;BME280;4874;43.568;27.824;2023-05-21T05:37:30;98670.31;;;19.58;93.34
9672;BME280;4874;43.568;27.824;2023-05-21T05:39:59;98673.41;;;19.68;91.91
9672;BME280;4874;43.568;27.824;2023-05-21T05:42:25;98675.25;;;19.81;89.71
9672;BME280;4874;43.568;27.824;2023-05-21T05:44:52;98684.78;;;19.77;90.06
9672;BME280;4874;43.568;27.824;2023-05-21T05:47:19;98682.06;;;19.97;90.23
9672;BME280;4874;43.568;27.824;2023-05-21T05:49:47;98668.00;;;19.88;89.59
9672;BME280;4874;43.568;27.824;2023-05-21T05:52:14;98673.38;;;19.88;88.68
9672;BME280;4874;43.568;27.824;2023-05-21T05:54:40;98672.97;;;19.84;87.85
9672;BME280;4874;43.568;27.824;2023-05-21T05:57:07;98674.59;;;19.92;87.09
9672;BME280;4874;43.568;27.824;2023-05-21T05:59:34;98676.25;;;20.00;87.16
9672;BME280;4874;43.568;27.824;2023-05-21T06:02:01;98637.31;;;19.82;86.70
9672;BME280;4874;43.568;27.824;2023-05-21T06:04:28;98674.91;;;20.35;85.98
9672;BME280;4874;43.568;27.824;2023-05-21T06:06:55;98668.97;;;20.70;84.10
9672;BME280;4874;43.568;27.824;2023-05-21T06:09:26;98655.50;;;20.95;80.81
9672;BME280;4874;43.568;27.824;2023-05-21T06:11:52;98658.06;;;21.21;77.71
9672;BME280;4874;43.568;27.824;2023-05-21T06:14:19;98649.41;;;21.13;77.93
9672;BME280;4874;43.568;27.824;2023-05-21T06:16:46;98628.09;;;21.05;75.61
9672;BME280;4874;43.568;27.824;2023-05-21T06:19:13;98647.28;;;21.46;74.78
9672;BME280;4874;43.568;27.824;2023-05-21T06:21:39;98647.81;;;21.79;71.34
9672;BME280;4874;43.568;27.824;2023-05-21T06:24:06;98646.00;;;21.91;68.71
9672;BME280;4874;43.568;27.824;2023-05-21T06:26:33;98648.06;;;22.32;68.28
9672;BME280;4874;43.568;27.824;2023-05-21T06:29:00;98637.13;;;22.56;65.75
9672;BME280;4874;43.568;27.824;2023-05-21T06:31:27;98653.53;;;22.43;64.34
9672;BME280;4874;43.568;27.824;2023-05-21T06:33:54;98649.31;;;22.65;64.12
9672;BME280;4874;43.568;27.824;2023-05-21T06:36:21;98638.00;;;22.68;62.75
9672;BME280;4874;43.568;27.824;2023-05-21T06:38:48;98632.34;;;22.58;61.41
9672;BME280;4874;43.568;27.824;2023-05-21T06:41:15;98635.06;;;22.70;61.41
9672;BME280;4874;43.568;27.824;2023-05-21T06:43:41;98627.56;;;23.13;61.53
9672;BME280;4874;43.568;27.824;2023-05-21T06:46:08;98638.69;;;23.35;60.95
9672;BME280;4874;43.568;27.824;2023-05-21T06:48:35;98626.41;;;23.20;60.71
9672;BME280;4874;43.568;27.824;2023-05-21T06:51:02;98624.94;;;23.36;60.26
9672;BME280;4874;43.568;27.824;2023-05-21T06:53:29;98629.25;;;23.25;59.57
9672;BME280;4874;43.568;27.824;2023-05-21T06:55:56;98617.50;;;23.32;58.91
9672;BME280;4874;43.568;27.824;2023-05-21T06:58:22;98620.78;;;23.45;59.22
9672;BME280;4874;43.568;27.824;2023-05-21T07:00:49;98623.75;;;23.44;59.41
9672;BME280;4874;43.568;27.824;2023-05-21T07:03:16;98623.28;;;23.47;59.26
9672;BME280;4874;43.568;27.824;2023-05-21T07:05:43;98626.44;;;23.44;59.23
9672;BME280;4874;43.568;27.824;2023-05-21T07:08:10;98630.13;;;23.38;59.33
9672;BME280;4874;43.568;27.824;2023-05-21T07:10:37;98632.47;;;23.34;59.68
9672;BME280;4874;43.568;27.824;2023-05-21T07:13:04;98622.97;;;23.02;61.02
9672;BME280;4874;43.568;27.824;2023-05-21T07:15:31;98624.47;;;23.39;61.30
9672;BME280;4874;43.568;27.824;2023-05-21T07:17:58;98628.09;;;23.33;61.74
9672;BME280;4874;43.568;27.824;2023-05-21T07:20:24;98626.41;;;23.20;60.56
9672;BME280;4874;43.568;27.824;2023-05-21T07:22:51;98633.31;;;23.58;60.17
9672;BME280;4874;43.568;27.824;2023-05-21T07:25:18;98624.16;;;23.17;58.42
9672;BME280;4874;43.568;27.824;2023-05-21T07:27:45;98635.41;;;23.56;58.96
9672;BME280;4874;43.568;27.824;2023-05-21T07:30:13;98629.19;;;23.02;58.94
9672;BME280;4874;43.568;27.824;2023-05-21T07:32:40;98625.06;;;23.00;58.60
9672;BME280;4874;43.568;27.824;2023-05-21T07:35:07;98622.38;;;23.11;58.37
9672;BME280;4874;43.568;27.824;2023-05-21T07:37:34;98593.66;;;23.22;58.14
9672;BME280;4874;43.568;27.824;2023-05-21T07:40:01;98626.94;;;23.52;58.29
9672;BME280;4874;43.568;27.824;2023-05-21T07:42:27;98626.34;;;23.39;58.59
9672;BME280;4874;43.568;27.824;2023-05-21T07:44:54;98618.56;;;23.42;59.37
9672;BME280;4874;43.568;27.824;2023-05-21T07:47:21;98628.47;;;23.71;59.57
9672;BME280;4874;43.568;27.824;2023-05-21T07:49:48;98631.53;;;23.63;59.99
9672;BME280;4874;43.568;27.824;2023-05-21T07:52:15;98632.59;;;23.74;61.08
9672;BME280;4874;43.568;27.824;2023-05-21T07:54:42;98609.59;;;23.42;61.49
9672;BME280;4874;43.568;27.824;2023-05-21T07:57:09;98624.22;;;23.52;61.32
9672;BME280;4874;43.568;27.824;2023-05-21T07:59:36;98618.91;;;23.34;60.95
9672;BME280;4874;43.568;27.824;2023-05-21T08:02:03;98600.31;;;23.72;61.35
9672;BME280;4874;43.568;27.824;2023-05-21T08:04:30;98625.16;;;23.69;61.00
9672;BME280;4874;43.568;27.824;2023-05-21T08:06:56;98641.53;;;23.63;59.86
9672;BME280;4874;43.568;27.824;2023-05-21T08:09:23;98634.38;;;23.68;60.13
9672;BME280;4874;43.568;27.824;2023-05-21T08:11:51;98637.31;;;23.67;60.70
9672;BME280;4874;43.568;27.824;2023-05-21T08:14:17;98638.84;;;23.51;60.17
9672;BME280;4874;43.568;27.824;2023-05-21T08:16:45;98635.66;;;23.43;60.28
9672;BME280;4874;43.568;27.824;2023-05-21T08:19:12;98648.72;;;23.34;59.84
9672;BME280;4874;43.568;27.824;2023-05-21T08:21:38;98639.72;;;23.22;61.03
9672;BME280;4874;43.568;27.824;2023-05-21T08:24:05;98635.53;;;23.38;61.94
9672;BME280;4874;43.568;27.824;2023-05-21T08:26:32;98649.94;;;23.08;63.66
9672;BME280;4874;43.568;27.824;2023-05-21T08:28:59;98644.78;;;23.18;65.00
9672;BME280;4874;43.568;27.824;2023-05-21T08:31:26;98651.94;;;23.13;65.96
9672;BME280;4874;43.568;27.824;2023-05-21T08:33:53;98654.50;;;23.38;66.20
9672;BME280;4874;43.568;27.824;2023-05-21T08:36:21;98653.78;;;23.54;65.91
9672;BME280;4874;43.568;27.824;2023-05-21T08:38:48;98656.13;;;22.97;66.74
9672;BME280;4874;43.568;27.824;2023-05-21T08:41:15;98665.91;;;22.69;68.22
9672;BME280;4874;43.568;27.824;2023-05-21T08:43:45;98646.00;;;22.27;69.54
9672;BME280;4874;43.568;27.824;2023-05-21T08:46:15;98639.03;;;22.38;70.58
9672;BME280;4874;43.568;27.824;2023-05-21T08:48:45;98664.47;;;22.30;72.04
9672;BME280;4874;43.568;27.824;2023-05-21T08:51:12;98672.91;;;22.40;73.41
9672;BME280;4874;43.568;27.824;2023-05-21T08:53:40;98672.22;;;22.27;74.46
9672;BME280;4874;43.568;27.824;2023-05-21T08:56:07;98661.25;;;22.22;75.50
9672;BME280;4874;43.568;27.824;2023-05-21T08:58:35;98649.13;;;22.12;75.77
9672;BME280;4874;43.568;27.824;2023-05-21T09:01:03;98671.13;;;22.16;74.70
9672;BME280;4874;43.568;27.824;2023-05-21T09:03:30;98666.91;;;22.20;73.83
9672;BME280;4874;43.568;27.824;2023-05-21T09:05:59;98651.50;;;22.21;73.38
9672;BME280;4874;43.568;27.824;2023-05-21T09:08:29;98669.44;;;22.15;73.79
9672;BME280;4874;43.568;27.824;2023-05-21T09:10:57;98672.38;;;21.95;73.62
9672;BME280;4874;43.568;27.824;2023-05-21T09:13:24;98650.22;;;22.05;72.78
9672;BME280;4874;43.568;27.824;2023-05-21T09:15:52;98662.00;;;22.29;73.11
9672;BME280;4874;43.568;27.824;2023-05-21T09:18:18;98670.97;;;22.29;73.31
9672;BME280;4874;43.568;27.824;2023-05-21T09:20:45;98668.28;;;22.77;72.25
9672;BME280;4874;43.568;27.824;2023-05-21T09:23:16;98672.44;;;22.79;72.37
9672;BME280;4874;43.568;27.824;2023-05-21T09:25:47;98660.03;;;23.01;72.06
9672;BME280;4874;43.568;27.824;2023-05-21T09:28:15;98667.19;;;22.96;72.24
9672;BME280;4874;43.568;27.824;2023-05-21T09:30:46;98679.00;;;23.13;71.44
9672;BME280;4874;43.568;27.824;2023-05-21T09:33:24;98664.38;;;23.02;67.36
9672;BME280;4874;43.568;27.824;2023-05-21T09:35:51;98671.34;;;23.10;66.46
9672;BME280;4874;43.568;27.824;2023-05-21T09:38:21;98648.94;;;22.91;64.43
9672;BME280;4874;43.568;27.824;2023-05-21T09:40:49;98671.28;;;22.87;64.97
9672;BME280;4874;43.568;27.824;2023-05-21T09:43:16;98674.81;;;22.87;65.67
9672;BME280;4874;43.568;27.824;2023-05-21T09:45:50;98677.25;;;22.77;68.46
9672;BME280;4874;43.568;27.824;2023-05-21T09:48:35;98666.00;;;22.62;69.55
9672;BME280;4874;43.568;27.824;2023-05-21T09:51:13;98678.94;;;22.60;69.91
9672;BME280;4874;43.568;27.824;2023-05-21T09:53:52;98674.47;;;22.48;70.89
9672;BME280;4874;43.568;27.824;2023-05-21T09:56:21;98681.25;;;22.39;72.56
9672;BME280;4874;43.568;27.824;2023-05-21T09:58:56;98681.41;;;22.62;72.73
9672;BME280;4874;43.568;27.824;2023-05-21T10:01:23;98684.84;;;22.69;72.99
9672;BME280;4874;43.568;27.824;2023-05-21T10:03:58;98687.06;;;22.60;71.81
9672;BME280;4874;43.568;27.824;2023-05-21T10:06:26;98684.44;;;22.54;72.04
9672;BME280;4874;43.568;27.824;2023-05-21T10:08:54;98682.53;;;22.54;72.96
9672;BME280;4874;43.568;27.824;2023-05-21T10:11:25;98688.69;;;22.61;73.82
9672;BME280;4874;43.568;27.824;2023-05-21T10:14:06;98689.84;;;22.54;72.90
9672;BME280;4874;43.568;27.824;2023-05-21T10:16:34;98684.13;;;22.44;74.16
9672;BME280;4874;43.568;27.824;2023-05-21T10:19:02;98677.25;;;22.41;73.04
9672;BME280;4874;43.568;27.824;2023-05-21T10:21:31;98678.16;;;22.35;73.09
9672;BME280;4874;43.568;27.824;2023-05-21T10:23:59;98695.44;;;22.34;74.24
9672;BME280;4874;43.568;27.824;2023-05-21T10:26:27;98661.50;;;22.20;75.20
9672;BME280;4874;43.568;27.824;2023-05-21T10:28:56;98688.84;;;22.12;75.55
9672;BME280;4874;43.568;27.824;2023-05-21T10:31:26;98682.16;;;22.14;76.23
9672;BME280;4874;43.568;27.824;2023-05-21T10:33:56;98700.19;;;22.21;76.69
9672;BME280;4874;43.568;27.824;2023-05-21T10:36:23;98657.13;;;22.01;76.25
9672;BME280;4874;43.568;27.824;2023-05-21T10:38:53;98699.50;;;22.25;74.68
9672;BME280;4874;43.568;27.824;2023-05-21T10:41:21;98703.13;;;22.19;73.67
9672;BME280;4874;43.568;27.824;2023-05-21T10:43:58;98703.56;;;22.34;72.94
9672;BME280;4874;43.568;27.824;2023-05-21T10:47:04;98715.00;;;22.36;73.33
9672;BME280;4874;43.568;27.824;2023-05-21T10:52:30;98702.50;;;22.53;73.65
9672;BME280;4874;43.568;27.824;2023-05-21T10:55:16;98702.97;;;22.50;73.89
9672;BME280;4874;43.568;27.824;2023-05-21T11:00:43;98704.53;;;22.76;71.80
9672;BME280;4874;43.568;27.824;2023-05-21T11:03:12;98698.09;;;22.88;72.33
9672;BME280;4874;43.568;27.824;2023-05-21T11:08:27;98677.41;;;22.94;72.04
9672;BME280;4874;43.568;27.824;2023-05-21T11:10:58;98699.53;;;23.20;72.67
9672;BME280;4874;43.568;27.824;2023-05-21T11:13:26;98684.66;;;23.11;70.54
9672;BME280;4874;43.568;27.824;2023-05-21T11:21:05;98699.22;;;23.28;70.64
9672;BME280;4874;43.568;27.824;2023-05-21T11:23:51;98701.22;;;23.33;69.84
9672;BME280;4874;43.568;27.824;2023-05-21T11:26:23;98696.38;;;22.94;68.70
9672;BME280;4874;43.568;27.824;2023-05-21T11:29:05;98693.53;;;23.18;69.02
9672;BME280;4874;43.568;27.824;2023-05-21T11:31:33;98696.88;;;23.02;67.54
9672;BME280;4874;43.568;27.824;2023-05-21T11:34:23;98694.38;;;22.89;68.63
9672;BME280;4874;43.568;27.824;2023-05-21T11:39:44;98689.84;;;22.83;68.73
9672;BME280;4874;43.568;27.824;2023-05-21T11:42:10;98693.44;;;22.95;68.90
9672;BME280;4874;43.568;27.824;2023-05-21T11:44:42;98685.16;;;22.90;69.58
9672;BME280;4874;43.568;27.824;2023-05-21T11:47:17;98653.66;;;22.66;69.60
9672;BME280;4874;43.568;27.824;2023-05-21T11:49:44;98687.16;;;22.83;69.20
9672;BME280;4874;43.568;27.824;2023-05-21T11:52:12;98680.56;;;22.79;68.65
9672;BME280;4874;43.568;27.824;2023-05-21T11:54:42;98678.38;;;22.99;68.07
9672;BME280;4874;43.568;27.824;2023-05-21T11:57:12;98635.63;;;22.60;69.08
9672;BME280;4874;43.568;27.824;2023-05-21T11:59:43;98660.94;;;22.95;67.78
9672;BME280;4874;43.568;27.824;2023-05-21T12:02:14;98643.97;;;22.88;66.32
9672;BME280;4874;43.568;27.824;2023-05-21T12:04:43;98624.75;;;22.78;65.48
9672;BME280;4874;43.568;27.824;2023-05-21T12:07:10;98669.63;;;23.15;64.23
9672;BME280;4874;43.568;27.824;2023-05-21T12:09:45;98660.59;;;23.33;63.96
9672;BME280;4874;43.568;27.824;2023-05-21T12:12:14;98664.19;;;23.80;64.14
9672;BME280;4874;43.568;27.824;2023-05-21T12:14:43;98654.16;;;23.80;62.97
9672;BME280;4874;43.568;27.824;2023-05-21T12:17:11;98652.50;;;23.68;63.23
9672;BME280;4874;43.568;27.824;2023-05-21T12:19:41;98638.84;;;23.86;63.55
9672;BME280;4874;43.568;27.824;2023-05-21T12:22:08;98623.63;;;23.85;63.22
9672;BME280;4874;43.568;27.824;2023-05-21T12:24:36;98636.25;;;24.02;63.12
9672;BME280;4874;43.568;27.824;2023-05-21T12:27:05;98632.13;;;24.00;62.78
9672;BME280;4874;43.568;27.824;2023-05-21T12:29:40;98636.97;;;24.09;62.24
9672;BME280;4874;43.568;27.824;2023-05-21T12:32:09;98630.81;;;23.91;60.30
9672;BME280;4874;43.568;27.824;2023-05-21T12:34:44;98632.34;;;24.21;60.03
9672;BME280;4874;43.568;27.824;2023-05-21T12:39:46;98628.69;;;24.16;58.67
9672;BME280;4874;43.568;27.824;2023-05-21T12:42:13;98591.88;;;23.97;58.31
9672;BME280;4874;43.568;27.824;2023-05-21T12:44:45;98619.47;;;24.28;58.18
9672;BME280;4874;43.568;27.824;2023-05-21T12:47:12;98631.00;;;24.35;57.95
9672;BME280;4874;43.568;27.824;2023-05-21T12:49:42;98622.41;;;24.27;58.33
9672;BME280;4874;43.568;27.824;2023-05-21T12:52:11;98626.53;;;24.29;57.06
9672;BME280;4874;43.568;27.824;2023-05-21T12:54:43;98631.34;;;24.67;56.41
9672;BME280;4874;43.568;27.824;2023-05-21T12:57:24;98628.38;;;24.40;52.80
9672;BME280;4874;43.568;27.824;2023-05-21T12:59:53;98622.41;;;24.27;52.66
9672;BME280;4874;43.568;27.824;2023-05-21T13:02:26;98630.84;;;24.42;52.30
9672;BME280;4874;43.568;27.824;2023-05-21T13:07:25;98542.50;;;23.95;50.87
9672;BME280;4874;43.568;27.824;2023-05-21T13:09:53;98619.25;;;24.18;49.69
9672;BME280;4874;43.568;27.824;2023-05-21T13:12:21;98628.19;;;24.19;50.23
9672;BME280;4874;43.568;27.824;2023-05-21T13:14:49;98633.63;;;24.30;50.70
9672;BME280;4874;43.568;27.824;2023-05-21T13:17:17;98631.03;;;24.12;50.45
9672;BME280;4874;43.568;27.824;2023-05-21T13:22:31;98597.31;;;24.08;50.84
9672;BME280;4874;43.568;27.824;2023-05-21T13:24:58;98621.22;;;24.23;51.16
9672;BME280;4874;43.568;27.824;2023-05-21T13:27:25;98624.41;;;24.31;51.40
9672;BME280;4874;43.568;27.824;2023-05-21T13:29:52;98622.63;;;24.37;51.75
9672;BME280;4874;43.568;27.824;2023-05-21T13:32:19;98615.38;;;24.14;51.93
9672;BME280;4874;43.568;27.824;2023-05-21T13:34:46;98621.16;;;24.06;51.24
9672;BME280;4874;43.568;27.824;2023-05-21T13:37:13;98625.47;;;24.19;50.89